createdAt,value
2022-08-30T00:00:43.482Z,15.08
2022-08-30T00:03:15.158Z,15.06
2022-08-30T00:05:45.453Z,15.07
2022-08-30T00:08:14.895Z,15.03
2022-08-30T00:10:45.938Z,15.01
2022-08-30T00:13:15.765Z,15.00
2022-08-30T00:15:47.505Z,14.95
2022-08-30T00:18:18.494Z,14.86
2022-08-30T00:20:49.642Z,14.88
2022-08-30T00:23:20.282Z,14.77
2022-08-30T00:25:50.641Z,14.74
2022-08-30T00:28:20.169Z,14.65
2022-08-30T00:30:51.048Z,14.66
2022-08-30T00:33:20.446Z,14.60
2022-08-30T00:35:50.446Z,14.56
2022-08-30T00:38:19.842Z,14.49
2022-08-30T00:40:49.795Z,14.55
2022-08-30T00:43:23.518Z,14.49
2022-08-30T00:45:54.970Z,14.47
2022-08-30T00:48:24.866Z,14.41
2022-08-30T00:50:56.883Z,14.37
2022-08-30T00:53:28.933Z,14.34
2022-08-30T00:56:00.745Z,14.32
2022-08-30T00:58:35.087Z,14.38
2022-08-30T01:01:07.739Z,14.43
2022-08-30T01:03:39.672Z,14.45
2022-08-30T01:06:09.866Z,14.44
2022-08-30T01:08:39.425Z,14.43
2022-08-30T01:11:09.336Z,14.45
2022-08-30T01:13:39.131Z,14.52
2022-08-30T01:16:10.235Z,14.48
2022-08-30T01:18:39.937Z,14.46
2022-08-30T01:21:16.275Z,14.51
2022-08-30T01:23:50.224Z,14.48
2022-08-30T01:26:22.105Z,14.47
2022-08-30T01:28:56.192Z,14.51
2022-08-30T01:31:25.573Z,14.47
2022-08-30T01:33:54.778Z,14.51
2022-08-30T01:36:25.205Z,14.48
2022-08-30T01:38:57.882Z,14.47
2022-08-30T01:41:29.056Z,14.53
2022-08-30T01:44:00.986Z,14.46
2022-08-30T01:46:36.066Z,14.46
2022-08-30T01:49:08.453Z,14.50
2022-08-30T01:51:38.902Z,14.47
2022-08-30T01:54:09.760Z,14.44
2022-08-30T01:56:39.306Z,14.40
2022-08-30T01:59:08.636Z,14.42
2022-08-30T02:01:39.999Z,14.42
2022-08-30T02:04:11.809Z,14.45
2022-08-30T02:06:41.338Z,14.43
2022-08-30T02:09:12.781Z,14.38
2022-08-30T02:11:41.917Z,14.37
2022-08-30T02:14:10.970Z,14.26
2022-08-30T02:16:40.666Z,14.31
2022-08-30T02:19:10.077Z,14.26
2022-08-30T02:21:42.127Z,14.29
2022-08-30T02:24:12.950Z,14.29
2022-08-30T02:26:42.474Z,14.31
2022-08-30T02:29:11.782Z,14.30
2022-08-30T02:31:40.766Z,14.32
2022-08-30T02:34:09.800Z,14.25
2022-08-30T02:36:40.720Z,14.31
2022-08-30T02:39:13.315Z,14.28
2022-08-30T02:41:43.862Z,14.35
2022-08-30T02:44:13.257Z,14.35
2022-08-30T02:46:42.801Z,14.31
2022-08-30T02:52:01.129Z,14.35
2022-08-30T02:54:33.280Z,14.34
2022-08-30T02:57:04.813Z,14.35
2022-08-30T02:59:37.751Z,14.36
2022-08-30T03:02:08.369Z,14.42
2022-08-30T03:04:39.007Z,14.34
2022-08-30T03:07:08.443Z,14.45
2022-08-30T03:09:39.409Z,14.46
2022-08-30T03:12:09.969Z,14.45
2022-08-30T03:14:40.325Z,14.43
2022-08-30T03:17:15.502Z,14.48
2022-08-30T03:19:46.188Z,14.44
2022-08-30T03:22:15.454Z,14.39
2022-08-30T03:24:46.496Z,14.35
2022-08-30T03:27:15.602Z,14.33
2022-08-30T03:29:44.686Z,14.31
2022-08-30T03:32:13.862Z,14.25
2022-08-30T03:34:43.071Z,14.28
2022-08-30T03:37:12.464Z,14.36
2022-08-30T03:39:41.689Z,14.31
2022-08-30T03:42:12.120Z,14.28
2022-08-30T03:44:41.312Z,14.32
2022-08-30T03:47:10.627Z,14.30
2022-08-30T03:49:39.905Z,14.30
2022-08-30T03:52:08.997Z,14.33
2022-08-30T03:54:38.653Z,14.34
2022-08-30T03:57:08.190Z,14.36
2022-08-30T03:59:43.801Z,14.34
2022-08-30T04:02:13.089Z,14.34
2022-08-30T04:04:42.349Z,14.32
2022-08-30T04:07:11.503Z,14.33
2022-08-30T04:09:41.803Z,14.33
2022-08-30T04:12:10.947Z,14.34
2022-08-30T04:14:40.273Z,14.37
2022-08-30T04:17:13.376Z,14.40
2022-08-30T04:19:42.549Z,14.40
2022-08-30T04:22:12.090Z,14.39
2022-08-30T04:24:41.609Z,14.37
2022-08-30T04:27:10.908Z,14.38
2022-08-30T04:29:40.418Z,14.42
2022-08-30T04:32:11.247Z,14.40
2022-08-30T04:34:40.438Z,14.48
2022-08-30T04:37:09.836Z,14.49
2022-08-30T04:39:39.325Z,14.40
2022-08-30T04:42:10.722Z,14.49
2022-08-30T04:44:39.992Z,14.43
2022-08-30T04:47:09.692Z,14.49
2022-08-30T04:49:40.538Z,14.52
2022-08-30T04:52:10.939Z,14.58
2022-08-30T04:54:40.162Z,14.62
2022-08-30T04:57:09.571Z,14.58
2022-08-30T04:59:40.352Z,14.61
2022-08-30T05:02:12.154Z,14.72
2022-08-30T05:04:59.110Z,14.67
2022-08-30T05:07:28.256Z,14.65
2022-08-30T05:09:57.519Z,14.66
2022-08-30T05:12:27.642Z,14.68
2022-08-30T05:14:58.338Z,14.68
2022-08-30T05:17:27.625Z,14.71
2022-08-30T05:19:59.170Z,14.78
2022-08-30T05:22:29.473Z,14.79
2022-08-30T05:25:01.246Z,14.82
2022-08-30T05:27:31.514Z,14.84
2022-08-30T05:30:01.094Z,14.85
2022-08-30T05:32:31.489Z,14.86
2022-08-30T05:35:02.318Z,14.85
2022-08-30T05:37:31.404Z,14.82
2022-08-30T05:40:01.198Z,14.88
2022-08-30T05:42:31.227Z,15.04
2022-08-30T05:45:00.438Z,15.15
2022-08-30T05:47:29.689Z,15.13
2022-08-30T05:49:58.735Z,15.26
2022-08-30T05:52:29.238Z,15.39
2022-08-30T05:55:00.011Z,15.45
2022-08-30T05:57:29.064Z,15.50
2022-08-30T05:59:58.257Z,15.55
2022-08-30T06:02:28.304Z,15.63
2022-08-30T06:04:57.537Z,16.61
2022-08-30T06:07:28.556Z,16.55
2022-08-30T06:09:57.724Z,15.94
2022-08-30T06:12:26.924Z,15.92
2022-08-30T06:14:56.015Z,16.03
2022-08-30T06:17:25.183Z,16.07
2022-08-30T06:19:54.491Z,15.99
2022-08-30T06:22:23.601Z,16.04
2022-08-30T06:24:57.459Z,15.89
2022-08-30T06:27:28.468Z,16.11
2022-08-30T06:29:57.559Z,16.05
2022-08-30T06:32:26.627Z,16.11
2022-08-30T06:34:55.726Z,16.41
2022-08-30T06:37:29.549Z,16.27
2022-08-30T06:40:01.513Z,16.42
2022-08-30T06:42:33.966Z,16.37
2022-08-30T06:45:10.291Z,16.45
2022-08-30T06:47:41.223Z,16.52
2022-08-30T06:50:12.255Z,16.75
2022-08-30T06:52:43.041Z,16.59
2022-08-30T06:55:16.634Z,16.69
2022-08-30T06:57:45.775Z,16.82
2022-08-30T07:00:17.878Z,17.11
2022-08-30T07:02:47.117Z,17.58
2022-08-30T07:05:18.930Z,17.28
2022-08-30T07:07:48.333Z,17.52
2022-08-30T07:10:19.124Z,17.35
2022-08-30T07:12:48.313Z,17.57
2022-08-30T07:15:20.487Z,17.50
2022-08-30T07:18:07.604Z,17.27
2022-08-30T07:20:40.624Z,17.45
2022-08-30T07:23:10.875Z,17.29
2022-08-30T07:25:42.508Z,17.41
2022-08-30T07:28:12.193Z,17.50
2022-08-30T07:30:43.022Z,17.36
2022-08-30T07:33:12.411Z,17.46
2022-08-30T07:35:41.628Z,17.40
2022-08-30T07:38:15.136Z,17.72
2022-08-30T07:40:45.858Z,17.64
2022-08-30T07:43:15.056Z,17.83
2022-08-30T07:45:44.278Z,17.83
2022-08-30T07:48:13.652Z,17.83
2022-08-30T07:50:47.148Z,17.77
2022-08-30T07:53:16.395Z,17.65
2022-08-30T07:55:46.962Z,18.01
2022-08-30T07:58:16.247Z,18.18
2022-08-30T08:00:45.955Z,18.34
2022-08-30T08:03:15.091Z,18.12
2022-08-30T08:05:46.401Z,18.17
2022-08-30T08:08:16.188Z,18.12
2022-08-30T08:10:47.094Z,17.94
2022-08-30T08:13:16.321Z,18.33
2022-08-30T08:15:46.570Z,18.31
2022-08-30T08:18:15.813Z,18.59
2022-08-30T08:20:45.040Z,18.38
2022-08-30T08:23:14.305Z,18.69
2022-08-30T08:25:43.497Z,18.50
2022-08-30T08:28:14.032Z,18.32
2022-08-30T08:30:47.593Z,18.26
2022-08-30T08:33:17.992Z,18.11
2022-08-30T08:35:47.285Z,18.05
2022-08-30T08:38:16.491Z,18.24
2022-08-30T08:40:56.653Z,18.27
2022-08-30T08:43:28.060Z,18.39
2022-08-30T08:46:02.122Z,18.47
2022-08-30T08:48:58.582Z,18.63
2022-08-30T08:51:46.895Z,18.67
2022-08-30T08:54:22.436Z,18.85
2022-08-30T08:56:51.624Z,18.79
2022-08-30T08:59:22.128Z,19.02
2022-08-30T09:01:51.692Z,18.97
2022-08-30T09:04:25.578Z,19.02
2022-08-30T09:06:59.282Z,19.01
2022-08-30T09:09:31.345Z,18.98
2022-08-30T09:12:01.369Z,19.21
2022-08-30T09:14:35.880Z,19.12
2022-08-30T09:17:06.940Z,19.34
2022-08-30T09:19:40.107Z,19.18
2022-08-30T09:22:17.896Z,19.18
2022-08-30T09:24:49.364Z,19.21
2022-08-30T09:27:24.081Z,18.57
2022-08-30T09:30:01.642Z,18.73
2022-08-30T09:32:34.054Z,18.81
2022-08-30T09:35:04.464Z,19.07
2022-08-30T09:37:38.368Z,19.04
2022-08-30T09:40:14.763Z,19.29
2022-08-30T09:42:59.269Z,19.56
2022-08-30T09:45:34.815Z,19.69
2022-08-30T09:48:23.995Z,19.80
2022-08-30T09:51:04.635Z,19.48
2022-08-30T09:53:37.011Z,20.05
2022-08-30T09:56:11.446Z,20.33
2022-08-30T09:58:57.514Z,20.56
2022-08-30T10:01:33.958Z,20.75
2022-08-30T10:04:15.228Z,20.64
2022-08-30T10:06:52.621Z,20.84
2022-08-30T10:09:34.707Z,21.04
2022-08-30T10:12:12.780Z,20.88
2022-08-30T10:14:59.790Z,20.46
2022-08-30T10:17:43.486Z,20.29
2022-08-30T10:20:24.479Z,20.09
2022-08-30T10:23:00.363Z,19.33
2022-08-30T10:25:35.097Z,19.12
2022-08-30T10:28:11.138Z,19.04
2022-08-30T10:30:46.401Z,18.96
2022-08-30T10:33:25.397Z,18.84
2022-08-30T10:35:58.453Z,18.94
2022-08-30T10:38:32.109Z,19.10
2022-08-30T10:41:14.711Z,19.45
2022-08-30T10:43:51.143Z,19.46
2022-08-30T10:46:29.279Z,19.55
2022-08-30T10:49:03.188Z,19.73
2022-08-30T10:51:40.195Z,19.59
2022-08-30T10:54:18.738Z,19.71
2022-08-30T10:56:52.405Z,21.01
2022-08-30T10:59:22.625Z,20.77
2022-08-30T11:02:20.576Z,20.52
2022-08-30T11:05:23.665Z,21.37
2022-08-30T11:08:01.580Z,20.92
2022-08-30T11:10:49.600Z,20.77
2022-08-30T11:13:22.916Z,20.59
2022-08-30T11:16:00.837Z,20.40
2022-08-30T11:18:33.081Z,21.21
2022-08-30T11:21:27.257Z,21.60
2022-08-30T11:24:10.767Z,21.15
2022-08-30T11:27:01.825Z,20.61
2022-08-30T11:29:47.563Z,20.90
2022-08-30T11:32:58.383Z,20.92
2022-08-30T11:35:47.312Z,21.32
2022-08-30T11:38:43.691Z,21.31
2022-08-30T11:41:15.131Z,20.99
2022-08-30T11:43:55.604Z,21.34
2022-08-30T11:46:41.000Z,22.16
2022-08-30T11:49:55.431Z,21.90
2022-08-30T11:52:48.883Z,23.50
2022-08-30T11:55:38.924Z,22.54
2022-08-30T11:58:24.036Z,22.79
2022-08-30T12:01:40.811Z,21.47
2022-08-30T12:04:15.425Z,22.18
2022-08-30T12:06:52.409Z,23.09
2022-08-30T12:10:04.751Z,22.57
2022-08-30T12:12:51.588Z,22.89
2022-08-30T12:15:50.297Z,23.57
2022-08-30T12:18:29.655Z,23.90
2022-08-30T12:21:04.899Z,23.12
2022-08-30T12:23:44.441Z,23.04
2022-08-30T12:26:20.109Z,23.75
2022-08-30T12:28:52.414Z,23.30
2022-08-30T12:31:24.499Z,23.81
2022-08-30T12:34:00.767Z,23.39
2022-08-30T12:36:36.396Z,22.92
2022-08-30T12:39:14.088Z,24.05
2022-08-30T12:41:44.387Z,24.12
2022-08-30T12:44:19.677Z,23.67
2022-08-30T12:46:54.899Z,22.58
2022-08-30T12:49:31.781Z,21.95
2022-08-30T12:52:16.937Z,20.17
2022-08-30T12:54:46.323Z,20.98
2022-08-30T12:57:35.577Z,20.51
2022-08-30T13:00:09.041Z,21.21
2022-08-30T13:02:47.426Z,21.94
2022-08-30T13:05:45.492Z,20.86
2022-08-30T13:08:20.133Z,20.68
2022-08-30T13:11:05.825Z,20.73
2022-08-30T13:13:41.259Z,21.77
2022-08-30T13:16:29.515Z,23.03
2022-08-30T13:19:26.899Z,21.93
2022-08-30T13:21:58.596Z,21.32
2022-08-30T13:24:28.045Z,21.38
2022-08-30T13:27:00.790Z,22.68
2022-08-30T13:29:31.874Z,22.98
2022-08-30T13:32:02.765Z,22.63
2022-08-30T13:34:33.096Z,23.53
2022-08-30T13:37:03.537Z,23.51
2022-08-30T13:39:34.075Z,23.73
2022-08-30T13:44:56.407Z,22.84
2022-08-30T13:47:34.794Z,23.55
2022-08-30T13:50:05.394Z,23.29
2022-08-30T13:52:34.781Z,22.12
2022-08-30T13:55:04.574Z,23.29
2022-08-30T14:00:25.035Z,21.60
2022-08-30T14:02:57.754Z,22.37
2022-08-30T14:05:50.187Z,22.58
2022-08-30T14:11:16.276Z,21.13
2022-08-30T14:16:42.879Z,21.41
2022-08-30T14:19:14.692Z,21.31
2022-08-30T14:21:48.873Z,20.97
2022-08-30T14:24:19.977Z,20.92
2022-08-30T14:26:51.448Z,20.81
2022-08-30T14:29:23.017Z,22.37
2022-08-30T14:31:53.790Z,23.22
2022-08-30T14:34:24.477Z,23.34
2022-08-30T14:36:53.847Z,22.76
2022-08-30T14:39:23.655Z,23.36
2022-08-30T14:41:55.490Z,22.84
2022-08-30T14:44:25.649Z,22.25
2022-08-30T14:46:55.550Z,21.87
2022-08-30T14:49:26.230Z,21.96
2022-08-30T14:51:56.391Z,22.45
2022-08-30T14:54:29.959Z,21.71
2022-08-30T14:56:59.744Z,21.27
2022-08-30T14:59:30.072Z,21.08
2022-08-30T15:01:59.140Z,21.82
2022-08-30T15:04:30.147Z,22.20
2022-08-30T15:07:00.279Z,22.33
2022-08-30T15:09:29.402Z,22.16
2022-08-30T15:12:01.273Z,22.79
2022-08-30T15:14:32.898Z,22.19
2022-08-30T15:17:03.256Z,22.58
2022-08-30T15:19:34.053Z,22.26
2022-08-30T15:22:06.132Z,22.59
2022-08-30T15:24:35.751Z,22.04
2022-08-30T15:27:06.149Z,22.39
2022-08-30T15:29:36.099Z,22.00
2022-08-30T15:32:06.466Z,21.46
2022-08-30T15:34:36.998Z,20.81
2022-08-30T15:37:07.697Z,21.97
2022-08-30T15:39:37.697Z,21.63
2022-08-30T15:42:09.859Z,20.84
2022-08-30T15:44:38.955Z,21.22
2022-08-30T15:47:08.427Z,21.91
2022-08-30T15:49:39.048Z,22.21
2022-08-30T15:52:08.600Z,22.18
2022-08-30T15:54:37.995Z,22.59
2022-08-30T15:57:07.523Z,21.58
2022-08-30T15:59:37.001Z,21.56
2022-08-30T16:02:06.322Z,21.53
2022-08-30T16:04:36.329Z,21.85
2022-08-30T16:07:07.902Z,21.16
2022-08-30T16:09:38.418Z,21.66
2022-08-30T16:12:09.927Z,21.47
2022-08-30T16:14:39.279Z,20.85
2022-08-30T16:17:10.260Z,20.75
2022-08-30T16:19:39.863Z,20.29
2022-08-30T16:22:11.285Z,20.27
2022-08-30T16:24:40.847Z,19.52
2022-08-30T16:27:11.943Z,19.38
2022-08-30T16:29:43.227Z,19.52
2022-08-30T16:32:13.517Z,19.15
2022-08-30T16:34:45.527Z,18.82
2022-08-30T16:37:18.468Z,18.80
2022-08-30T16:39:51.684Z,18.76
2022-08-30T16:42:22.695Z,18.67
2022-08-30T16:44:55.002Z,18.66
2022-08-30T16:47:26.280Z,18.70
2022-08-30T16:49:56.532Z,18.68
2022-08-30T16:52:28.786Z,18.51
2022-08-30T16:54:59.337Z,18.44
2022-08-30T16:57:31.311Z,18.44
2022-08-30T17:00:03.013Z,18.31
2022-08-30T17:02:34.221Z,18.24
2022-08-30T17:05:05.795Z,18.15
2022-08-30T17:07:38.048Z,18.06
2022-08-30T17:10:11.443Z,17.99
2022-08-30T17:12:43.724Z,17.94
2022-08-30T17:15:16.904Z,17.89
2022-08-30T17:17:46.871Z,17.81
2022-08-30T17:20:18.548Z,17.70
2022-08-30T17:22:50.025Z,17.69
2022-08-30T17:25:21.559Z,17.65
2022-08-30T17:27:50.847Z,17.65
2022-08-30T17:30:19.987Z,17.53
2022-08-30T17:32:49.557Z,17.44
2022-08-30T17:35:18.623Z,17.38
2022-08-30T17:37:49.285Z,17.30
2022-08-30T17:40:20.863Z,17.36
2022-08-30T17:42:50.480Z,17.33
2022-08-30T17:45:19.993Z,17.57
2022-08-30T17:47:49.255Z,17.59
2022-08-30T17:50:19.561Z,17.14
2022-08-30T17:52:50.744Z,16.92
2022-08-30T17:55:20.592Z,16.88
2022-08-30T17:57:50.937Z,16.77
2022-08-30T18:00:20.507Z,16.66
2022-08-30T18:02:51.072Z,16.58
2022-08-30T18:05:24.631Z,16.52
2022-08-30T18:07:55.970Z,16.42
2022-08-30T18:13:15.062Z,16.27
2022-08-30T18:15:44.479Z,16.22
2022-08-30T18:18:13.758Z,16.12
2022-08-30T18:20:43.029Z,16.07
2022-08-30T18:23:17.203Z,15.97
2022-08-30T18:25:55.667Z,15.90
2022-08-30T18:28:25.639Z,15.82
2022-08-30T18:30:57.087Z,15.71
2022-08-30T18:33:27.066Z,15.62
2022-08-30T18:35:58.130Z,15.55
2022-08-30T18:38:29.793Z,15.50
2022-08-30T18:41:04.263Z,15.45
2022-08-30T18:43:34.318Z,15.37
2022-08-30T18:46:09.605Z,15.34
2022-08-30T18:48:40.365Z,15.25
2022-08-30T18:51:14.024Z,15.08
2022-08-30T18:53:45.761Z,15.10
2022-08-30T18:56:16.578Z,15.04
2022-08-30T18:58:47.450Z,14.90
2022-08-30T19:01:22.631Z,14.83
2022-08-30T19:03:52.697Z,14.74
2022-08-30T19:06:21.854Z,14.65
2022-08-30T19:08:52.561Z,14.67
2022-08-30T19:11:21.857Z,14.56
2022-08-30T19:13:52.787Z,14.51
2022-08-30T19:16:22.873Z,14.51
2022-08-30T19:18:55.195Z,14.48
2022-08-30T19:21:24.800Z,14.38
2022-08-30T19:23:55.723Z,14.35
2022-08-30T19:26:27.412Z,14.29
2022-08-30T19:28:56.837Z,14.21
2022-08-30T19:31:25.914Z,14.16
2022-08-30T19:33:55.357Z,14.11
2022-08-30T19:36:24.957Z,14.04
2022-08-30T19:38:56.077Z,13.94
2022-08-30T19:41:25.378Z,13.85
2022-08-30T19:43:54.486Z,13.75
2022-08-30T19:46:24.075Z,13.75
2022-08-30T19:48:53.876Z,13.85
2022-08-30T19:51:23.010Z,13.81
2022-08-30T19:53:52.884Z,13.67
2022-08-30T19:56:29.454Z,13.77
2022-08-30T19:58:58.968Z,13.62
2022-08-30T20:01:33.625Z,13.51
2022-08-30T20:04:06.847Z,13.39
2022-08-30T20:06:37.042Z,13.27
2022-08-30T20:09:07.036Z,13.20
2022-08-30T20:11:46.058Z,13.23
2022-08-30T20:14:19.141Z,13.25
2022-08-30T20:16:49.768Z,13.16
2022-08-30T20:19:21.919Z,13.18
2022-08-30T20:22:04.290Z,13.08
2022-08-30T20:24:26.632Z,16.31
2022-08-30T20:24:38.330Z,13.06
2022-08-30T20:27:10.209Z,12.93
2022-08-30T20:29:40.238Z,12.88
2022-08-30T20:32:10.145Z,12.83
2022-08-30T20:34:40.631Z,12.73
2022-08-30T20:37:10.654Z,12.83
2022-08-30T20:39:42.740Z,12.78
2022-08-30T20:42:13.768Z,12.73
2022-08-30T20:44:44.490Z,12.71
2022-08-30T20:47:13.716Z,12.63
2022-08-30T20:49:43.379Z,12.49
2022-08-30T20:52:13.390Z,12.36
2022-08-30T20:54:42.993Z,12.39
2022-08-30T20:57:14.967Z,12.25
2022-08-30T20:59:44.322Z,12.18
2022-08-30T21:02:15.090Z,12.13
2022-08-30T21:04:44.200Z,12.28
2022-08-30T21:07:13.637Z,12.20
2022-08-30T21:09:42.931Z,12.14
2022-08-30T21:12:13.577Z,12.13
2022-08-30T21:14:42.954Z,12.12
2022-08-30T21:17:11.997Z,12.04
2022-08-30T21:19:43.975Z,12.05
2022-08-30T21:22:13.556Z,12.00
2022-08-30T21:24:43.023Z,11.93
2022-08-30T21:27:14.836Z,11.87
2022-08-30T21:29:44.338Z,11.80
2022-08-30T21:32:13.686Z,11.72
2022-08-30T21:34:56.840Z,11.69
2022-08-30T21:37:26.084Z,11.59
2022-08-30T21:39:55.737Z,11.48
2022-08-30T21:42:26.278Z,11.47
2022-08-30T21:44:55.492Z,11.41
2022-08-30T21:47:24.766Z,11.34
2022-08-30T21:49:53.952Z,11.33
2022-08-30T21:52:23.089Z,11.32
2022-08-30T21:54:52.350Z,11.31
2022-08-30T21:57:21.579Z,11.29
2022-08-30T21:59:52.507Z,11.22
2022-08-30T22:02:22.482Z,11.21
2022-08-30T22:04:51.795Z,11.25
2022-08-30T22:07:20.846Z,11.21
2022-08-30T22:09:49.906Z,11.10
2022-08-30T22:12:19.102Z,10.79
2022-08-30T22:14:48.279Z,10.61
2022-08-30T22:17:18.863Z,10.61
2022-08-30T22:19:47.918Z,10.69
2022-08-30T22:22:17.024Z,10.76
2022-08-30T22:24:46.040Z,10.65
2022-08-30T22:27:15.793Z,10.36
2022-08-30T22:29:45.023Z,10.60
2022-08-30T22:32:14.165Z,10.68
2022-08-30T22:34:46.307Z,10.59
2022-08-30T22:37:15.919Z,10.51
2022-08-30T22:39:45.010Z,10.47
2022-08-30T22:42:14.109Z,10.33
2022-08-30T22:44:43.193Z,10.17
2022-08-30T22:47:12.242Z,10.33
2022-08-30T22:49:42.721Z,10.38
2022-08-30T22:52:12.746Z,10.44
2022-08-30T22:54:41.830Z,10.30
2022-08-30T22:57:14.736Z,10.40
2022-08-30T22:59:44.017Z,10.44
2022-08-30T23:02:13.173Z,10.49
2022-08-30T23:04:43.749Z,10.70
2022-08-30T23:07:12.797Z,10.69
2022-08-30T23:09:41.884Z,10.48
2022-08-30T23:12:10.965Z,10.28
2022-08-30T23:14:40.237Z,10.32
2022-08-30T23:17:09.240Z,10.23
2022-08-30T23:19:38.427Z,10.14
2022-08-30T23:22:08.810Z,10.14
2022-08-30T23:24:55.223Z,10.26
2022-08-30T23:27:42.709Z,10.19
2022-08-30T23:30:30.833Z,10.16
2022-08-30T23:33:17.739Z,10.19
2022-08-30T23:36:04.541Z,10.24
2022-08-30T23:38:52.540Z,10.26
2022-08-30T23:41:39.089Z,10.15
2022-08-30T23:44:25.903Z,10.07
2022-08-30T23:47:12.676Z,10.21
2022-08-30T23:49:59.492Z,10.27
2022-08-30T23:52:45.957Z,10.08
2022-08-30T23:55:33.959Z,9.99
2022-08-30T23:58:20.715Z,9.92
